CheckWX is a tool to help pilots better visualize weather data.  It is not intended as a substitute for an official pre-flight weather briefing.

23:34:54 UTC

KWMC TAF
Winnemucca Municipal Airport
Winnemucca, Nevada, USA
KWMC 181736Z 1818/1918 21010KT P6SM SCT250 FM190200 18006KT P6SM FEW120 BKN200 FM190900 21011KT P6SM BKN090 FM191700 24018G28KT P6SM VCSH OVC030

Oct-18@
18:00 UTC

Oct-18 @ 18:00 UTC

Oct-19@
02:00 UTC

Oct-19 @ 02:00 UTC

KWMC 181736Z 1818/1918 21010KT P6SM SCT250
Wind
  • 210° at 10 KTS
Cloud Levels
  • Scattered at 25,000' AGL

Oct-19@
02:00 UTC

Oct-19 @ 02:00 UTC

Oct-19@
09:00 UTC

Oct-19 @ 09:00 UTC

FM190200 18006KT P6SM FEW120 BKN200

From

From Standard forecast or significant change

Wind
  • 180° at 6 KTS
Cloud Levels
  • Few at 12,000' AGL
  • Broken at 20,000' AGL

Oct-19@
09:00 UTC

Oct-19 @ 09:00 UTC

Oct-19@
17:00 UTC

Oct-19 @ 17:00 UTC

FM190900 21011KT P6SM BKN090

From

From Standard forecast or significant change

Wind
  • 210° at 11 KTS
Cloud Levels
  • Broken at 9,000' AGL

Oct-19@
17:00 UTC

Oct-19 @ 17:00 UTC

Oct-19@
18:00 UTC

Oct-19 @ 18:00 UTC

FM191700 24018G28KT P6SM VCSH OVC030

From

From Standard forecast or significant change

Wind
  • 240° at 18 KTS
  • {Gusting to 28 KTS
Cloud Levels
  • Overcast at 3,000' AGL